Time;durP1;ratioP1;P1;durP2;ratioP2;P2;SDS_P1;SDS_P2;PMS_P1;PMS_P2;Temp;Humidity;BMP_temperature;BMP_pressure;BME280_temperature;BME280_humidity;BME280_pressure;Samples;Min_cycle;Max_cycle;Signal;HPM_P1;HPM_P2
2023/08/11 00:01:07;;;;;;;8.75;1.40;;;22.80;44.60;;;;;;5043613;28;20027;-69
2023/08/11 00:03:35;;;;;;;6.53;1.10;;;23.30;43.60;;;;;;5043929;28;20033;-69
2023/08/11 00:06:06;;;;;;;4.00;1.33;;;23.30;43.20;;;;;;5040101;28;20462;-70
2023/08/11 00:08:36;;;;;;;6.25;1.20;;;23.30;42.50;;;;;;5034560;28;20040;-70
2023/08/11 00:11:04;;;;;;;5.60;1.05;;;23.30;42.10;;;;;;5038728;28;20033;-68
2023/08/11 00:13:31;;;;;;;6.68;0.95;;;23.40;42.30;;;;;;5048609;28;20070;-69
2023/08/11 00:15:59;;;;;;;6.28;1.10;;;23.20;42.20;;;;;;5047405;28;20036;-68
2023/08/11 00:18:27;;;;;;;6.43;1.10;;;23.10;43.70;;;;;;5033923;28;20036;-69
2023/08/11 00:20:54;;;;;;;2.47;0.70;;;23.80;42.10;;;;;;5044530;28;20470;-69
2023/08/11 00:23:21;;;;;;;4.45;1.02;;;23.90;40.80;;;;;;5045735;28;20029;-68
2023/08/11 00:25:49;;;;;;;3.72;0.70;;;24.00;41.60;;;;;;5044770;28;20045;-69
2023/08/11 00:28:16;;;;;;;9.38;1.00;;;24.00;41.40;;;;;;5048577;28;20036;-69
2023/08/11 00:30:43;;;;;;;3.83;0.70;;;24.80;40.00;;;;;;5044103;28;20044;-68
2023/08/11 00:33:11;;;;;;;2.25;0.50;;;24.70;39.20;;;;;;5053221;28;20065;-69
2023/08/11 00:35:41;;;;;;;6.60;0.77;;;24.60;38.00;;;;;;5039100;28;20375;-69
2023/08/11 00:38:08;;;;;;;1.92;0.80;;;24.40;39.50;;;;;;5045946;28;20571;-70
2023/08/11 00:40:36;;;;;;;4.20;0.68;;;25.10;37.90;;;;;;5037536;28;20025;-69
2023/08/11 00:43:04;;;;;;;3.10;0.60;;;25.10;38.40;;;;;;5039909;28;20337;-70
2023/08/11 00:45:31;;;;;;;4.93;0.70;;;24.90;39.40;;;;;;5032876;28;20504;-71
2023/08/11 00:47:59;;;;;;;3.35;0.50;;;25.00;39.00;;;;;;5038176;28;20051;-70
2023/08/11 00:50:27;;;;;;;1.45;0.40;;;25.10;39.20;;;;;;5029227;28;20021;-69
2023/08/11 00:52:54;;;;;;;2.42;0.57;;;25.30;38.70;;;;;;5006032;28;20490;-68
2023/08/11 00:55:23;;;;;;;1.67;0.50;;;25.50;37.70;;;;;;5024832;28;20025;-71
2023/08/11 00:57:50;;;;;;;4.15;0.80;;;25.20;36.70;;;;;;5031878;28;20588;-69
2023/08/11 01:00:18;;;;;;;2.75;0.80;;;24.90;38.80;;;;;;5027573;28;20486;-71
2023/08/11 01:02:46;;;;;;;4.72;0.52;;;24.90;40.20;;;;;;5022750;28;20043;-70
2023/08/11 01:05:16;;;;;;;3.15;0.40;;;25.10;38.50;;;;;;5027790;28;21590;-71
2023/08/11 01:07:52;;;;;;;3.55;0.70;;;25.90;37.90;;;;;;5033425;28;20036;-71
2023/08/11 01:10:35;;;;;;;3.08;1.35;;;26.20;37.70;;;;;;5027964;28;20041;-71
2023/08/11 01:13:20;;;;;;;4.45;0.95;;;25.90;37.50;;;;;;5023720;28;20024;-71
2023/08/11 01:15:59;;;;;;;2.97;0.60;;;26.10;36.00;;;;;;5042824;28;20052;-71
2023/08/11 01:18:29;;;;;;;2.55;0.43;;;26.40;37.30;;;;;;5045264;28;20048;-69
2023/08/11 01:21:06;;;;;;;4.15;0.47;;;26.30;35.70;;;;;;5043222;28;20424;-70
2023/08/11 01:23:34;;;;;;;4.95;0.63;;;26.00;36.40;;;;;;5042268;28;20039;-70
2023/08/11 01:26:02;;;;;;;1.35;0.40;;;26.20;36.40;;;;;;5047553;28;20520;-69
2023/08/11 01:28:29;;;;;;;4.03;0.88;;;26.10;37.10;;;;;;5042000;28;20037;-69
2023/08/11 01:30:56;;;;;;;4.18;0.50;;;26.40;36.60;;;;;;5042987;28;20040;-70
2023/08/11 01:33:24;;;;;;;2.13;0.85;;;26.30;38.20;;;;;;5041614;28;20083;-69
2023/08/11 01:35:51;;;;;;;3.10;0.50;;;26.50;35.10;;;;;;5013279;28;20040;-69
2023/08/11 01:38:18;;;;;;;2.67;0.55;;;26.20;35.70;;;;;;5037519;28;20095;-69
2023/08/11 01:40:47;;;;;;;3.13;0.50;;;26.70;34.60;;;;;;5038622;28;20029;-69
2023/08/11 01:43:15;;;;;;;2.08;0.75;;;25.20;37.30;;;;;;5030204;28;20021;-70
2023/08/11 01:45:48;;;;;;;1.90;0.43;;;25.80;38.00;;;;;;5040148;28;20393;-68
2023/08/11 01:48:19;;;;;;;5.05;0.50;;;26.30;36.60;;;;;;5039549;28;20097;-69
2023/08/11 01:50:47;;;;;;;3.15;0.50;;;26.70;35.80;;;;;;5051559;28;20170;-69
2023/08/11 01:53:14;;;;;;;1.83;0.60;;;26.30;35.60;;;;;;5036794;28;20117;-67
2023/08/11 01:55:44;;;;;;;1.90;0.63;;;26.10;34.90;;;;;;5031047;28;20875;-68
2023/08/11 01:58:12;;;;;;;1.80;0.60;;;26.20;37.10;;;;;;5038838;28;20074;-68
2023/08/11 02:00:39;;;;;;;6.07;0.75;;;26.20;35.80;;;;;;5040144;28;20028;-68
2023/08/11 02:03:07;;;;;;;1.17;0.40;;;26.30;36.00;;;;;;5040714;28;20028;-67
2023/08/11 02:05:34;;;;;;;3.08;0.50;;;26.50;36.40;;;;;;5042326;28;20025;-68
2023/08/11 02:08:03;;;;;;;1.38;0.47;;;26.70;34.30;;;;;;5035429;28;20056;-70
2023/08/11 02:10:30;;;;;;;1.45;0.40;;;26.00;34.60;;;;;;5034118;28;20028;-68
2023/08/11 02:12:58;;;;;;;3.53;0.35;;;25.90;36.20;;;;;;5057228;28;20029;-68
2023/08/11 02:15:25;;;;;;;3.38;0.40;;;25.90;35.50;;;;;;5050633;28;20386;-68
2023/08/11 02:17:53;;;;;;;1.95;0.45;;;26.00;36.10;;;;;;5035901;28;20028;-68
2023/08/11 02:22:48;;;;;;;1.08;0.40;;;26.20;36.00;;;;;;5046736;28;20448;-68
2023/08/11 02:25:15;;;;;;;2.35;0.73;;;26.50;34.70;;;;;;5029378;28;20173;-68
2023/08/11 02:27:43;;;;;;;1.05;0.43;;;26.20;34.00;;;;;;5047903;28;20417;-68
2023/08/11 02:30:12;;;;;;;3.03;0.50;;;25.70;34.00;;;;;;5042556;28;20029;-68
2023/08/11 02:32:41;;;;;;;4.95;0.93;;;24.80;35.50;;;;;;5042262;28;20617;-67
2023/08/11 02:35:10;;;;;;;1.48;0.35;;;24.90;34.80;;;;;;5043847;28;20025;-68
2023/08/11 02:37:37;;;;;;;2.38;0.60;;;24.60;34.50;;;;;;5034209;28;20093;-67
2023/08/11 02:40:09;;;;;;;6.55;0.60;;;23.50;35.80;;;;;;5026870;28;20687;-68
2023/08/11 02:42:39;;;;;;;1.95;0.60;;;23.40;36.50;;;;;;5040877;28;20021;-69
2023/08/11 02:45:09;;;;;;;3.40;0.60;;;23.60;36.10;;;;;;5021112;28;20024;-69
2023/08/11 02:47:39;;;;;;;3.45;0.50;;;23.90;36.20;;;;;;5029063;28;20034;-69
2023/08/11 02:50:08;;;;;;;4.30;0.70;;;24.10;36.20;;;;;;5041577;28;20058;-67
2023/08/11 02:52:36;;;;;;;2.53;0.50;;;24.10;35.90;;;;;;5042907;28;20112;-70
2023/08/11 02:55:04;;;;;;;2.97;0.95;;;24.20;36.80;;;;;;5046692;28;20051;-68
2023/08/11 02:57:32;;;;;;;3.25;0.47;;;24.60;36.70;;;;;;5036177;28;20052;-69
2023/08/11 03:00:00;;;;;;;1.63;0.40;;;25.10;34.90;;;;;;5044124;28;20059;-68
2023/08/11 03:02:27;;;;;;;1.90;0.40;;;25.10;35.80;;;;;;5037337;28;20127;-68
2023/08/11 03:04:54;;;;;;;1.88;0.50;;;25.40;34.90;;;;;;5040226;28;20496;-69
2023/08/11 03:07:22;;;;;;;2.67;0.70;;;25.20;34.20;;;;;;5041528;28;20055;-68
2023/08/11 03:09:50;;;;;;;2.97;0.50;;;25.20;35.00;;;;;;5047389;28;20036;-68
2023/08/11 03:12:17;;;;;;;3.45;0.60;;;25.10;35.60;;;;;;5041633;28;20041;-68
2023/08/11 03:14:44;;;;;;;2.20;0.57;;;25.10;34.50;;;;;;5047615;28;20461;-69
2023/08/11 03:17:13;;;;;;;0.80;0.30;;;24.90;34.50;;;;;;5013886;28;20403;-68
2023/08/11 03:19:40;;;;;;;4.03;0.45;;;25.10;34.80;;;;;;5041450;28;20403;-68
2023/08/11 03:22:08;;;;;;;2.72;0.50;;;25.20;34.90;;;;;;5044426;28;20035;-70
2023/08/11 03:24:35;;;;;;;1.95;0.38;;;25.00;34.40;;;;;;5032070;28;20043;-68
2023/08/11 03:27:02;;;;;;;2.33;0.80;;;24.50;34.70;;;;;;5027327;28;20092;-70
2023/08/11 03:29:33;;;;;;;2.92;0.98;;;24.10;35.20;;;;;;5008343;28;20049;-69
2023/08/11 03:32:01;;;;;;;3.45;0.30;;;23.90;36.00;;;;;;5048016;28;20406;-68
2023/08/11 03:34:28;;;;;;;0.93;0.30;;;23.60;34.90;;;;;;5047240;28;20035;-69
2023/08/11 03:36:55;;;;;;;3.95;0.50;;;23.50;35.90;;;;;;5044817;28;20111;-69
2023/08/11 03:39:23;;;;;;;1.60;0.30;;;23.50;35.00;;;;;;5033331;28;20036;-70
2023/08/11 03:41:52;;;;;;;3.15;0.20;;;23.80;34.30;;;;;;5041073;28;20363;-68
2023/08/11 03:44:19;;;;;;;1.73;0.32;;;23.30;34.90;;;;;;5037846;28;20367;-69
2023/08/11 03:46:46;;;;;;;1.75;0.40;;;23.40;34.90;;;;;;5032551;28;20132;-68
2023/08/11 03:49:14;;;;;;;2.00;0.43;;;23.20;35.40;;;;;;5037685;28;20393;-68
2023/08/11 03:51:41;;;;;;;3.38;0.40;;;22.80;35.80;;;;;;5048684;28;20060;-67
2023/08/11 03:54:09;;;;;;;1.05;0.40;;;22.60;36.40;;;;;;5041696;28;20033;-70
2023/08/11 03:56:37;;;;;;;2.63;0.73;;;22.40;36.60;;;;;;5041071;28;20059;-68
2023/08/11 03:59:05;;;;;;;1.88;0.40;;;22.20;37.10;;;;;;5031823;28;20029;-68
2023/08/11 04:01:33;;;;;;;2.10;0.50;;;22.00;36.90;;;;;;5039707;28;20021;-69
2023/08/11 04:04:00;;;;;;;2.28;0.65;;;21.90;37.00;;;;;;5045100;28;20033;-68
2023/08/11 04:06:32;;;;;;;2.80;0.70;;;21.80;37.50;;;;;;5039056;28;20028;-68
2023/08/11 04:09:00;;;;;;;5.10;0.80;;;21.90;38.90;;;;;;5038819;28;20045;-68
2023/08/11 04:11:32;;;;;;;3.25;0.40;;;22.20;37.90;;;;;;5025901;28;20025;-68
2023/08/11 04:14:00;;;;;;;1.75;0.40;;;22.20;36.80;;;;;;5051622;28;20024;-69
2023/08/11 04:16:28;;;;;;;2.50;0.40;;;21.90;37.20;;;;;;5046989;28;20025;-68
2023/08/11 04:18:55;;;;;;;2.35;0.80;;;21.50;36.70;;;;;;5041380;28;20068;-68
2023/08/11 04:21:23;;;;;;;3.13;0.70;;;21.30;38.30;;;;;;5048857;28;20029;-67
2023/08/11 04:23:50;;;;;;;1.48;0.65;;;21.40;38.10;;;;;;5041983;28;20063;-68
2023/08/11 04:26:18;;;;;;;1.80;0.50;;;21.50;38.10;;;;;;5031083;28;20383;-68
2023/08/11 04:28:45;;;;;;;3.20;0.60;;;21.50;38.20;;;;;;5023678;28;20044;-69
2023/08/11 04:31:13;;;;;;;4.13;0.80;;;21.70;38.30;;;;;;5047413;28;20524;-68
2023/08/11 04:33:41;;;;;;;0.75;0.43;;;21.90;38.10;;;;;;5050106;28;20036;-69
2023/08/11 04:36:08;;;;;;;6.65;0.75;;;21.90;37.90;;;;;;5054004;28;20047;-68
2023/08/11 04:38:36;;;;;;;1.00;0.35;;;21.70;38.10;;;;;;5054528;28;20021;-68
2023/08/11 04:41:03;;;;;;;1.50;0.50;;;21.70;38.20;;;;;;5054668;28;20036;-69
2023/08/11 04:43:30;;;;;;;2.95;0.73;;;21.50;38.60;;;;;;5049651;28;20036;-69
2023/08/11 04:45:58;;;;;;;2.05;0.82;;;21.30;38.50;;;;;;5047685;28;20028;-69
2023/08/11 04:48:25;;;;;;;4.47;1.15;;;21.10;38.70;;;;;;5047579;28;20059;-69
2023/08/11 04:50:53;;;;;;;2.55;0.82;;;21.00;39.00;;;;;;5053675;28;20486;-68
2023/08/11 04:53:21;;;;;;;1.17;0.60;;;21.00;39.30;;;;;;5054629;28;20051;-68
2023/08/11 04:55:48;;;;;;;2.47;1.08;;;20.60;39.20;;;;;;5054590;28;20486;-68
2023/08/11 04:58:35;;;;;;;4.90;1.08;;;20.50;39.00;;;;;;4936121;28;20316;-70
2023/08/11 05:01:03;;;;;;;2.22;0.85;;;20.60;40.00;;;;;;4971628;28;20247;-69
2023/08/11 05:03:37;;;;;;;2.33;0.65;;;20.40;40.10;;;;;;5005794;28;20227;-71
2023/08/11 05:06:04;;;;;;;3.50;1.00;;;20.40;40.10;;;;;;5011705;28;20029;-69
2023/08/11 05:08:34;;;;;;;2.58;0.77;;;20.30;40.30;;;;;;5009270;28;20223;-68
2023/08/11 05:11:03;;;;;;;2.28;0.68;;;20.40;40.60;;;;;;5016984;28;20033;-69
2023/08/11 05:13:30;;;;;;;2.50;0.68;;;20.50;40.00;;;;;;5031029;28;20036;-69
2023/08/11 05:16:00;;;;;;;2.47;0.80;;;20.40;41.00;;;;;;4977289;28;20774;-70
2023/08/11 05:18:28;;;;;;;3.47;1.00;;;20.20;40.50;;;;;;5000221;28;20801;-69
2023/08/11 05:20:55;;;;;;;2.72;0.80;;;20.20;41.00;;;;;;5019957;28;20491;-69
2023/08/11 05:23:23;;;;;;;2.08;0.55;;;20.20;40.90;;;;;;5018321;28;20033;-67
2023/08/11 05:25:50;;;;;;;4.43;0.82;;;20.10;41.10;;;;;;4994670;28;20503;-68
2023/08/11 05:28:18;;;;;;;3.38;1.20;;;20.20;41.50;;;;;;5010152;28;20417;-69
2023/08/11 05:30:46;;;;;;;2.63;0.80;;;20.10;41.50;;;;;;5014406;28;20040;-68
2023/08/11 05:33:15;;;;;;;3.17;0.90;;;20.20;41.70;;;;;;5015502;28;20454;-69
2023/08/11 05:35:43;;;;;;;4.32;1.05;;;20.20;41.00;;;;;;5008751;28;20028;-68
2023/08/11 05:38:12;;;;;;;2.58;0.75;;;19.90;41.70;;;;;;5017730;28;20585;-69
2023/08/11 05:40:40;;;;;;;1.92;0.50;;;20.10;41.60;;;;;;5005148;28;20032;-68
2023/08/11 05:43:07;;;;;;;4.55;0.70;;;20.10;41.60;;;;;;5007976;28;20025;-67
2023/08/11 05:45:37;;;;;;;3.80;1.50;;;20.20;41.20;;;;;;5017286;28;20079;-68
2023/08/11 05:48:05;;;;;;;2.38;0.85;;;20.40;41.30;;;;;;4995945;28;20080;-69
2023/08/11 05:50:32;;;;;;;4.53;1.20;;;20.40;41.40;;;;;;5023449;28;20049;-68
2023/08/11 05:53:00;;;;;;;2.78;0.90;;;20.40;40.70;;;;;;5022880;28;20208;-70
2023/08/11 05:55:28;;;;;;;2.30;1.00;;;20.40;41.10;;;;;;5015003;28;20021;-69
2023/08/11 05:57:56;;;;;;;1.67;0.80;;;20.50;40.80;;;;;;5023853;28;20028;-69
2023/08/11 06:00:23;;;;;;;2.35;0.68;;;20.50;40.80;;;;;;5032706;28;20032;-68
2023/08/11 06:02:51;;;;;;;2.40;0.90;;;20.70;41.20;;;;;;5024359;28;20025;-68
2023/08/11 06:05:21;;;;;;;4.30;0.80;;;20.70;41.00;;;;;;5027712;28;20037;-71
2023/08/11 06:07:51;;;;;;;3.00;1.00;;;20.80;40.80;;;;;;5002690;28;20322;-71
2023/08/11 06:10:19;;;;;;;3.90;1.00;;;20.90;40.50;;;;;;5028354;28;20200;-68
2023/08/11 06:12:46;;;;;;;5.00;1.00;;;20.90;40.80;;;;;;5018619;28;20789;-67
2023/08/11 06:15:14;;;;;;;3.53;1.00;;;20.70;40.80;;;;;;5012791;28;20339;-69
2023/08/11 06:17:43;;;;;;;4.85;0.90;;;20.90;40.70;;;;;;5020808;28;20475;-69
2023/08/11 06:20:12;;;;;;;2.10;0.70;;;20.90;40.90;;;;;;4985605;28;20312;-67
2023/08/11 06:22:41;;;;;;;3.50;1.05;;;20.70;41.00;;;;;;4986197;28;20029;-70
2023/08/11 06:25:10;;;;;;;6.40;1.02;;;20.60;41.50;;;;;;5036411;28;20073;-68
2023/08/11 06:27:40;;;;;;;4.60;1.20;;;20.60;41.60;;;;;;5015900;28;20493;-69
2023/08/11 06:30:09;;;;;;;1.92;0.80;;;20.50;41.70;;;;;;5029681;28;20033;-68
2023/08/11 06:32:38;;;;;;;2.60;0.90;;;20.10;42.00;;;;;;5039225;28;20111;-69
2023/08/11 06:35:08;;;;;;;2.90;1.20;;;20.00;42.60;;;;;;5015592;28;20242;-69
2023/08/11 06:37:35;;;;;;;2.78;1.00;;;19.80;43.40;;;;;;5014907;28;20423;-69
2023/08/11 06:40:04;;;;;;;5.72;1.33;;;19.70;43.50;;;;;;5042396;28;20520;-71
2023/08/11 06:42:33;;;;;;;3.13;1.15;;;19.50;43.60;;;;;;5027535;28;20041;-71
2023/08/11 06:45:00;;;;;;;3.90;1.83;;;19.50;43.50;;;;;;5029612;28;20021;-69
2023/08/11 06:47:31;;;;;;;6.55;1.95;;;19.30;43.70;;;;;;5039334;28;20151;-69
2023/08/11 06:49:59;;;;;;;5.57;1.65;;;19.20;44.10;;;;;;5025313;28;20040;-71
2023/08/11 06:52:27;;;;;;;5.15;1.90;;;19.10;44.40;;;;;;5027830;28;20017;-68
2023/08/11 06:54:54;;;;;;;6.28;1.92;;;19.00;44.40;;;;;;5024606;28;20032;-70
2023/08/11 06:57:23;;;;;;;4.53;2.22;;;19.00;44.20;;;;;;5012286;28;20036;-71
2023/08/11 06:59:50;;;;;;;7.57;2.35;;;18.90;44.50;;;;;;5015359;28;20033;-68
2023/08/11 07:02:20;;;;;;;5.75;2.30;;;19.00;44.40;;;;;;5020953;28;20196;-70
2023/08/11 07:04:47;;;;;;;9.38;2.10;;;18.80;44.90;;;;;;5029277;28;20033;-69
2023/08/11 07:07:15;;;;;;;4.90;2.17;;;18.60;45.10;;;;;;4974538;28;20565;-70
2023/08/11 07:09:49;;;;;;;7.10;2.35;;;18.40;45.40;;;;;;5013427;28;20079;-69
2023/08/11 07:12:16;;;;;;;4.20;2.30;;;18.40;45.80;;;;;;4987288;28;20041;-68
2023/08/11 07:14:43;;;;;;;5.35;2.50;;;18.30;45.70;;;;;;5039877;28;20025;-68
2023/08/11 07:17:13;;;;;;;6.90;2.58;;;18.20;46.00;;;;;;5027868;28;20473;-71
2023/08/11 07:19:40;;;;;;;6.32;2.30;;;18.10;46.30;;;;;;5030007;28;20044;-68
2023/08/11 07:22:07;;;;;;;11.05;2.42;;;17.90;47.70;;;;;;4997652;28;20071;-69
2023/08/11 07:24:36;;;;;;;8.25;2.63;;;17.90;47.70;;;;;;5010219;28;20029;-70
2023/08/11 07:27:04;;;;;;;5.82;2.20;;;17.80;46.80;;;;;;5001345;28;20486;-68
2023/08/11 07:29:31;;;;;;;6.68;2.60;;;17.70;47.30;;;;;;5026533;28;20028;-67
2023/08/11 07:32:01;;;;;;;7.38;2.40;;;17.60;47.60;;;;;;4979796;28;20412;-69
2023/08/11 07:34:28;;;;;;;8.15;2.50;;;17.40;48.60;;;;;;4968227;28;20637;-69
2023/08/11 07:37:01;;;;;;;4.97;2.30;;;17.30;49.00;;;;;;5017885;28;20352;-69
2023/08/11 07:39:30;;;;;;;5.10;2.17;;;17.20;49.20;;;;;;5008937;28;20390;-68
2023/08/11 07:42:02;;;;;;;5.88;2.72;;;17.00;49.80;;;;;;5002121;28;20742;-69
2023/08/11 07:44:31;;;;;;;7.65;2.90;;;16.90;50.10;;;;;;4982995;28;20032;-70
2023/08/11 07:47:04;;;;;;;7.28;2.78;;;16.80;50.40;;;;;;5021669;28;20048;-71
2023/08/11 07:49:32;;;;;;;6.15;2.60;;;16.70;50.80;;;;;;5017243;28;20063;-68
2023/08/11 07:52:01;;;;;;;5.95;2.55;;;16.60;51.70;;;;;;5025160;28;20119;-71
2023/08/11 07:54:31;;;;;;;13.18;10.70;;;16.50;52.10;;;;;;4962647;28;20265;-71
2023/08/11 07:56:59;;;;;;;11.93;8.18;;;16.40;51.00;;;;;;5018465;28;20032;-70
2023/08/11 07:59:29;;;;;;;7.95;6.25;;;16.30;51.50;;;;;;5000218;28;20102;-72
2023/08/11 08:01:56;;;;;;;11.82;7.10;;;16.20;53.20;;;;;;4975548;28;20494;-71
2023/08/11 08:04:24;;;;;;;8.43;5.40;;;16.00;53.20;;;;;;5043823;28;20025;-69
2023/08/11 08:06:51;;;;;;;10.90;6.40;;;15.90;53.30;;;;;;5049915;28;20024;-70
2023/08/11 08:09:19;;;;;;;10.43;5.38;;;15.80;53.70;;;;;;5041962;28;20076;-70
2023/08/11 08:11:48;;;;;;;13.25;4.57;;;15.70;53.90;;;;;;5056006;28;20021;-68
2023/08/11 08:14:16;;;;;;;7.95;4.25;;;15.70;54.70;;;;;;5060961;28;20032;-67
2023/08/11 08:16:47;;;;;;;7.15;4.43;;;15.60;54.80;;;;;;5058068;28;20033;-67
2023/08/11 08:19:14;;;;;;;9.18;4.22;;;15.50;55.40;;;;;;5057433;28;20062;-68
2023/08/11 08:21:45;;;;;;;6.18;4.35;;;15.40;55.30;;;;;;5061153;28;20037;-67
2023/08/11 08:24:14;;;;;;;8.38;4.32;;;15.30;55.50;;;;;;5049357;28;20089;-69
2023/08/11 08:26:41;;;;;;;15.20;4.53;;;15.20;55.70;;;;;;5059013;28;20099;-69
2023/08/11 08:29:09;;;;;;;9.40;4.60;;;15.20;56.00;;;;;;5058882;28;20180;-68
2023/08/11 08:31:36;;;;;;;10.98;4.53;;;15.10;56.10;;;;;;5059514;28;20394;-68
2023/08/11 08:34:04;;;;;;;12.82;5.03;;;15.00;56.20;;;;;;5053708;28;20462;-67
2023/08/11 08:36:31;;;;;;;10.93;4.55;;;15.00;56.70;;;;;;5063422;28;20082;-69
2023/08/11 08:38:59;;;;;;;9.48;4.65;;;14.90;57.00;;;;;;5053408;28;20119;-67
2023/08/11 08:41:29;;;;;;;9.95;5.18;;;14.80;57.30;;;;;;5058247;28;20035;-67
2023/08/11 08:43:57;;;;;;;12.32;4.95;;;14.70;57.70;;;;;;5059675;28;20478;-67
2023/08/11 08:46:30;;;;;;;11.65;4.78;;;14.50;58.20;;;;;;5062531;28;20036;-68
2023/08/11 08:49:24;;;;;;;11.05;5.32;;;14.40;58.70;;;;;;5050455;28;20048;-67
2023/08/11 08:51:52;;;;;;;12.35;4.65;;;14.40;59.00;;;;;;5051935;28;20044;-68
2023/08/11 08:54:19;;;;;;;9.93;4.38;;;14.30;58.70;;;;;;5056489;28;20075;-67
2023/08/11 08:56:48;;;;;;;10.13;4.32;;;14.30;58.70;;;;;;5058411;28;20418;-67
2023/08/11 08:59:15;;;;;;;11.50;4.78;;;14.30;59.10;;;;;;5053700;28;20374;-67
2023/08/11 09:01:44;;;;;;;10.35;4.28;;;14.20;59.70;;;;;;5052327;28;20036;-68
2023/08/11 09:04:12;;;;;;;9.85;4.60;;;14.20;60.10;;;;;;5058411;28;20121;-68
2023/08/11 09:06:42;;;;;;;8.57;4.60;;;14.10;60.50;;;;;;5005274;28;20487;-70
2023/08/11 09:09:10;;;;;;;9.02;4.93;;;14.00;61.10;;;;;;5030763;28;20071;-70
2023/08/11 09:11:38;;;;;;;18.15;5.43;;;13.90;61.50;;;;;;5051827;28;20033;-68
2023/08/11 09:14:08;;;;;;;11.88;5.25;;;13.80;62.00;;;;;;5033629;28;20021;-68
2023/08/11 09:16:39;;;;;;;13.32;5.60;;;13.80;62.10;;;;;;5028735;28;20031;-68
2023/08/11 09:19:12;;;;;;;11.70;5.40;;;13.70;62.60;;;;;;5008047;28;20036;-67
2023/08/11 09:21:45;;;;;;;11.68;4.93;;;13.60;63.00;;;;;;5053181;28;20028;-70
2023/08/11 09:24:14;;;;;;;16.85;4.85;;;13.50;63.00;;;;;;5032826;28;20098;-68
2023/08/11 09:26:52;;;;;;;12.20;4.55;;;13.50;63.40;;;;;;5032459;28;20072;-68
2023/08/11 09:29:20;;;;;;;9.15;4.20;;;13.50;63.20;;;;;;5032740;28;20364;-68
2023/08/11 09:31:49;;;;;;;9.63;4.22;;;13.50;63.10;;;;;;5036808;28;20064;-68
2023/08/11 09:34:18;;;;;;;10.60;4.60;;;13.50;62.30;;;;;;5034532;28;20393;-68
2023/08/11 09:36:48;;;;;;;12.70;4.60;;;13.50;62.00;;;;;;5036794;28;20031;-69
2023/08/11 09:39:16;;;;;;;13.13;4.53;;;13.60;62.60;;;;;;5053192;28;20024;-68
2023/08/11 09:41:47;;;;;;;11.07;4.65;;;13.50;62.20;;;;;;5050513;28;20047;-69
2023/08/11 09:44:21;;;;;;;11.65;3.92;;;13.50;62.60;;;;;;5053816;28;20032;-68
2023/08/11 09:46:49;;;;;;;9.40;4.50;;;13.50;63.20;;;;;;5056433;28;20142;-68
2023/08/11 09:49:17;;;;;;;14.60;4.32;;;13.40;63.50;;;;;;5056706;28;20144;-69
2023/08/11 09:51:45;;;;;;;10.48;3.95;;;13.50;63.90;;;;;;5050705;28;20131;-67
2023/08/11 09:54:14;;;;;;;11.07;4.38;;;13.50;64.30;;;;;;5049642;28;20116;-71
2023/08/11 09:56:43;;;;;;;11.13;5.70;;;13.40;64.90;;;;;;5053619;28;20029;-68
2023/08/11 09:59:19;;;;;;;11.18;5.22;;;13.40;64.80;;;;;;5053088;28;20020;-68
2023/08/11 10:01:47;;;;;;;15.75;4.82;;;13.30;65.10;;;;;;5054446;28;20081;-68
2023/08/11 10:04:32;;;;;;;11.48;5.65;;;13.30;65.70;;;;;;5053893;28;20504;-68
2023/08/11 10:07:02;;;;;;;10.93;4.55;;;13.20;66.10;;;;;;5058495;28;20048;-68
2023/08/11 10:09:32;;;;;;;14.07;6.00;;;13.20;66.60;;;;;;5058165;28;20072;-68
2023/08/11 10:12:00;;;;;;;10.48;5.30;;;13.20;66.50;;;;;;5054104;28;20041;-68
2023/08/11 10:14:29;;;;;;;8.45;4.57;;;13.20;67.10;;;;;;5053808;28;20432;-67
2023/08/11 10:16:59;;;;;;;12.93;4.15;;;13.10;67.40;;;;;;5062667;28;20497;-67
2023/08/11 10:19:27;;;;;;;12.45;4.30;;;13.00;68.00;;;;;;5060257;28;20033;-68
2023/08/11 10:21:55;;;;;;;9.00;3.92;;;12.90;68.80;;;;;;5058255;28;20412;-67
2023/08/11 10:24:23;;;;;;;8.45;4.78;;;12.80;69.90;;;;;;5053617;28;20028;-68
2023/08/11 10:26:51;;;;;;;11.05;4.30;;;12.80;70.00;;;;;;5053899;28;20052;-69
2023/08/11 10:29:20;;;;;;;13.63;5.45;;;12.70;70.00;;;;;;5053816;28;20103;-68
2023/08/11 10:32:01;;;;;;;12.02;5.15;;;12.70;70.50;;;;;;5052577;28;20028;-68
2023/08/11 10:34:28;;;;;;;12.63;5.70;;;12.70;70.90;;;;;;5053292;28;20074;-68
2023/08/11 10:36:57;;;;;;;26.65;7.43;;;12.60;71.80;;;;;;5046748;28;20439;-67
2023/08/11 10:39:25;;;;;;;22.80;5.32;;;12.70;71.30;;;;;;5051463;28;20028;-72
2023/08/11 10:41:57;;;;;;;20.17;5.60;;;12.60;71.80;;;;;;5048267;28;20071;-67
2023/08/11 10:44:29;;;;;;;19.17;5.70;;;12.50;72.60;;;;;;5051385;28;20147;-67
2023/08/11 10:47:03;;;;;;;21.80;5.63;;;12.30;72.70;;;;;;5052080;28;20021;-70
2023/08/11 10:49:42;;;;;;;17.27;6.18;;;12.10;73.50;;;;;;5057259;28;20506;-68
2023/08/11 10:52:11;;;;;;;16.98;5.93;;;12.10;74.00;;;;;;5041042;28;20032;-68
2023/08/11 10:54:38;;;;;;;15.18;6.07;;;12.10;74.70;;;;;;5047823;28;20033;-68
2023/08/11 10:57:06;;;;;;;11.30;5.10;;;12.20;74.10;;;;;;5048591;28;20033;-68
2023/08/11 10:59:34;;;;;;;11.60;5.18;;;12.10;73.80;;;;;;5054130;28;20029;-68
2023/08/11 11:02:02;;;;;;;14.30;4.97;;;12.00;74.60;;;;;;5061765;28;20028;-68
2023/08/11 11:04:32;;;;;;;12.63;5.38;;;11.90;75.10;;;;;;5054735;28;20032;-67
2023/08/11 11:07:01;;;;;;;13.57;5.00;;;11.90;75.20;;;;;;5054401;28;20033;-68
2023/08/11 11:09:30;;;;;;;14.25;4.90;;;11.80;75.20;;;;;;5056405;28;20033;-68
2023/08/11 11:11:58;;;;;;;12.98;5.32;;;11.90;76.10;;;;;;5057131;28;20111;-67
2023/08/11 11:14:25;;;;;;;18.10;5.43;;;11.80;75.90;;;;;;5056216;28;20037;-67
2023/08/11 11:16:54;;;;;;;11.80;5.22;;;11.70;76.20;;;;;;5053813;28;20044;-67
2023/08/11 11:19:23;;;;;;;14.40;5.43;;;11.60;76.40;;;;;;5055243;28;20039;-68
2023/08/11 11:21:52;;;;;;;16.73;6.63;;;11.60;76.90;;;;;;5049715;28;20075;-68
2023/08/11 11:24:20;;;;;;;14.88;6.10;;;11.50;77.50;;;;;;5048222;28;20473;-67
2023/08/11 11:26:47;;;;;;;15.18;6.22;;;11.50;78.10;;;;;;5050849;28;20140;-68
2023/08/11 11:29:16;;;;;;;13.02;5.30;;;11.40;78.30;;;;;;5053879;28;20097;-67
2023/08/11 11:31:43;;;;;;;10.52;5.20;;;11.30;78.80;;;;;;5057065;28;20027;-67
2023/08/11 11:34:11;;;;;;;13.52;4.95;;;11.30;79.10;;;;;;5058400;28;20040;-71
2023/08/11 11:36:38;;;;;;;15.77;6.35;;;11.20;79.40;;;;;;5054064;28;20053;-69
2023/08/11 11:39:08;;;;;;;10.55;4.72;;;11.20;79.70;;;;;;5057316;28;20031;-67
2023/08/11 11:41:35;;;;;;;11.07;5.20;;;11.10;80.00;;;;;;5057855;28;20041;-69
2023/08/11 11:44:03;;;;;;;13.65;5.07;;;11.20;80.00;;;;;;5054657;28;20042;-67
2023/08/11 11:46:33;;;;;;;10.75;4.82;;;11.20;81.10;;;;;;5053271;28;20086;-67
2023/08/11 11:49:03;;;;;;;22.35;8.13;;;11.20;82.00;;;;;;5053440;28;20045;-68
2023/08/11 11:51:31;;;;;;;16.05;7.25;;;11.20;82.80;;;;;;5050137;28;20025;-68
2023/08/11 11:53:59;;;;;;;16.20;7.85;;;11.30;83.20;;;;;;5053338;28;20091;-67
2023/08/11 11:56:32;;;;;;;17.67;6.97;;;11.40;81.70;;;;;;5051994;28;20029;-68
2023/08/11 11:59:01;;;;;;;17.88;6.82;;;11.40;81.60;;;;;;5049779;28;20051;-68
2023/08/11 12:01:29;;;;;;;15.27;6.20;;;11.40;81.70;;;;;;5049723;28;20331;-70
2023/08/11 12:03:58;;;;;;;14.10;6.15;;;11.30;81.80;;;;;;5043121;28;20037;-69
2023/08/11 12:06:28;;;;;;;14.68;5.90;;;11.30;81.80;;;;;;5049857;28;20494;-68
2023/08/11 12:09:04;;;;;;;9.02;5.10;;;11.40;81.10;;;;;;5050418;28;20045;-68
2023/08/11 12:11:32;;;;;;;12.23;5.05;;;11.30;81.20;;;;;;5050651;28;20024;-68
2023/08/11 12:14:01;;;;;;;11.68;4.63;;;11.40;80.80;;;;;;5046597;28;20481;-68
2023/08/11 12:16:28;;;;;;;11.70;4.47;;;11.50;80.80;;;;;;5052561;28;20033;-68
2023/08/11 12:19:00;;;;;;;14.25;5.20;;;11.40;80.70;;;;;;5054703;28;20036;-68
2023/08/11 12:21:29;;;;;;;12.90;4.93;;;11.30;81.10;;;;;;5052421;28;20020;-68
2023/08/11 12:23:56;;;;;;;7.40;4.60;;;11.20;81.40;;;;;;5048380;28;20044;-69
2023/08/11 12:26:24;;;;;;;12.23;4.65;;;11.10;81.10;;;;;;5047115;28;20041;-69
2023/08/11 12:28:51;;;;;;;11.85;4.53;;;10.90;82.30;;;;;;5051492;28;20135;-68
2023/08/11 12:31:19;;;;;;;;;;;10.80;82.30;;;;;;5051833;28;20083;-68
2023/08/11 12:33:46;;;;;;;186.25;61.53;;;10.80;82.90;;;;;;5041080;28;19913;-68
2023/08/11 12:36:13;;;;;;;;;;;10.90;83.10;;;;;;5045612;28;20033;-68
2023/08/11 12:38:40;;;;;;;172.55;58.00;;;10.80;83.30;;;;;;5048412;28;19905;-67
2023/08/11 12:41:07;;;;;;;96.95;34.15;;;10.80;83.60;;;;;;5047364;28;20467;-67
2023/08/11 12:43:35;;;;;;;98.63;33.08;;;10.80;83.60;;;;;;5045521;28;20036;-67
2023/08/11 12:46:02;;;;;;;151.65;54.72;;;10.70;83.60;;;;;;5047443;28;20103;-69
2023/08/11 12:48:29;;;;;;;;;;;10.70;83.90;;;;;;5047804;28;20517;-68
2023/08/11 12:50:56;;;;;;;93.80;37.75;;;10.60;84.30;;;;;;5050683;28;19909;-67
2023/08/11 12:53:23;;;;;;;;;;;10.60;84.30;;;;;;5058892;28;20029;-68
2023/08/11 12:55:50;;;;;;;36.30;15.80;;;10.40;84.90;;;;;;5052074;28;20369;-68